createdAt,value
2022-11-13T00:04:33.430Z,39.97
2022-11-13T00:09:36.308Z,29.60
2022-11-13T00:14:39.177Z,33.87
2022-11-13T00:19:42.562Z,39.73
2022-11-13T00:24:46.471Z,38.90
2022-11-13T00:29:49.398Z,45.90
2022-11-13T00:34:53.046Z,31.87
2022-11-13T00:39:59.620Z,35.07
2022-11-13T00:45:02.668Z,36.73
2022-11-13T00:50:06.038Z,41.10
2022-11-13T00:55:09.184Z,34.23
2022-11-13T01:00:12.815Z,37.60
2022-11-13T01:05:15.698Z,43.70
2022-11-13T01:10:18.773Z,44.63
2022-11-13T01:15:21.669Z,42.97
2022-11-13T01:20:26.014Z,26.70
2022-11-13T01:25:29.508Z,36.93
2022-11-13T01:30:32.788Z,40.90
2022-11-13T01:35:35.707Z,27.47
2022-11-13T01:40:48.391Z,38.63
2022-11-13T01:46:00.459Z,23.67
2022-11-13T01:51:09.707Z,29.50
2022-11-13T01:56:13.302Z,29.97
2022-11-13T02:01:16.045Z,31.73
2022-11-13T02:06:21.914Z,36.97
2022-11-13T02:11:25.663Z,43.73
2022-11-13T02:16:32.264Z,32.47
2022-11-13T02:21:53.537Z,37.93
2022-11-13T02:27:02.994Z,28.07
2022-11-13T02:32:06.010Z,29.33
2022-11-13T02:37:09.692Z,38.17
2022-11-13T02:42:12.515Z,29.17
2022-11-13T02:47:15.442Z,37.83
2022-11-13T02:52:18.152Z,39.53
2022-11-13T02:57:21.104Z,38.07
2022-11-13T03:02:24.499Z,37.10
2022-11-13T03:07:27.719Z,45.60
2022-11-13T03:12:30.836Z,34.20
2022-11-13T03:17:35.200Z,35.77
2022-11-13T03:22:38.087Z,66.97
2022-11-13T03:27:40.905Z,69.63
2022-11-13T03:32:43.873Z,107.93
2022-11-13T03:37:46.912Z,65.40
2022-11-13T03:42:49.768Z,54.60
2022-11-13T03:47:52.654Z,58.50
2022-11-13T03:52:55.570Z,71.77
2022-11-13T03:57:58.465Z,58.87
2022-11-13T04:03:01.582Z,84.70
2022-11-13T04:08:04.829Z,99.83
2022-11-13T04:13:07.957Z,50.97
2022-11-13T04:18:10.802Z,40.90
2022-11-13T04:23:15.997Z,25.67
2022-11-13T04:28:18.990Z,39.03
2022-11-13T04:33:22.185Z,43.07
2022-11-13T04:38:25.199Z,45.37
2022-11-13T04:43:28.303Z,41.70
2022-11-13T04:48:31.481Z,33.63
2022-11-13T04:53:34.798Z,32.00
2022-11-13T04:58:37.522Z,63.90
2022-11-13T05:03:40.411Z,50.00
2022-11-13T05:08:43.256Z,29.73
2022-11-13T05:13:46.828Z,44.13
2022-11-13T05:18:50.266Z,44.97
2022-11-13T05:23:53.133Z,45.93
2022-11-13T05:29:00.556Z,33.93
2022-11-13T05:34:06.319Z,42.37
2022-11-13T05:39:09.404Z,32.93
2022-11-13T05:44:12.332Z,32.17
2022-11-13T05:49:15.661Z,89.70
2022-11-13T05:54:18.536Z,67.53
2022-11-13T05:59:21.452Z,74.70
2022-11-13T06:04:24.326Z,53.83
2022-11-13T06:09:27.436Z,48.80
2022-11-13T06:14:30.245Z,64.20
2022-11-13T06:19:32.959Z,54.73
2022-11-13T06:24:36.429Z,62.30
2022-11-13T06:29:39.564Z,71.47
2022-11-13T06:34:42.766Z,52.03
2022-11-13T06:39:45.511Z,37.13
2022-11-13T06:44:48.421Z,47.17
2022-11-13T06:49:51.302Z,55.37
2022-11-13T06:54:54.230Z,45.37
2022-11-13T06:59:57.473Z,55.37
2022-11-13T07:05:00.577Z,36.10
2022-11-13T07:10:03.529Z,51.07
2022-11-13T07:15:06.999Z,30.57
2022-11-13T07:20:10.758Z,50.67
2022-11-13T07:25:14.109Z,20.43
2022-11-13T07:30:18.031Z,37.40
2022-11-13T07:35:21.397Z,26.13
2022-11-13T07:40:24.728Z,30.60
2022-11-13T07:45:28.786Z,35.90
2022-11-13T07:50:36.167Z,23.33
2022-11-13T07:55:39.104Z,24.73
2022-11-13T08:00:42.376Z,25.73
2022-11-13T08:05:45.668Z,28.97
2022-11-13T08:10:48.599Z,24.60
2022-11-13T08:15:51.502Z,26.47
2022-11-13T08:20:54.909Z,30.97
2022-11-13T08:25:58.508Z,33.60
2022-11-13T08:31:03.101Z,35.10
2022-11-13T08:36:06.793Z,33.13
2022-11-13T08:41:10.074Z,24.70
2022-11-13T08:46:12.914Z,21.10
2022-11-13T08:51:16.881Z,20.23
2022-11-13T08:56:20.058Z,21.07
2022-11-13T09:01:22.970Z,20.03
2022-11-13T09:06:26.120Z,29.30
2022-11-13T09:11:31.548Z,22.00
2022-11-13T09:16:34.557Z,25.67
2022-11-13T09:21:37.290Z,24.23
2022-11-13T09:26:40.211Z,21.20
2022-11-13T09:31:43.047Z,26.53
2022-11-13T09:36:46.654Z,21.23
2022-11-13T09:42:22.618Z,19.03
2022-11-13T09:47:37.516Z,25.03
2022-11-13T09:52:44.363Z,25.73
2022-11-13T09:58:06.956Z,26.47
2022-11-13T10:04:00.624Z,20.93
2022-11-13T10:09:28.507Z,21.90
2022-11-13T10:14:46.023Z,32.03
2022-11-13T10:20:16.195Z,25.13
2022-11-13T10:25:24.053Z,39.03
2022-11-13T10:30:29.690Z,21.83
2022-11-13T10:35:38.495Z,19.83
2022-11-13T10:40:41.561Z,21.90
2022-11-13T10:45:59.466Z,28.83
2022-11-13T10:51:29.240Z,23.77
2022-11-13T10:56:37.588Z,17.57
2022-11-13T11:01:42.671Z,20.17
2022-11-13T11:07:18.464Z,18.73
2022-11-13T11:12:30.179Z,21.53
2022-11-13T11:18:01.582Z,22.80
2022-11-13T11:23:31.152Z,22.47
2022-11-13T11:29:00.512Z,29.37
2022-11-13T11:34:16.217Z,25.27
2022-11-13T11:39:48.460Z,29.60
2022-11-13T11:45:04.917Z,23.97
2022-11-13T11:50:18.796Z,24.00
2022-11-13T11:56:04.805Z,25.97
2022-11-13T12:01:37.408Z,31.90
2022-11-13T12:07:00.342Z,22.97
2022-11-13T12:12:18.254Z,24.20
2022-11-13T12:17:56.034Z,26.63
2022-11-13T12:23:28.861Z,28.70
2022-11-13T12:29:06.450Z,32.07
2022-11-13T12:34:34.459Z,37.93
2022-11-13T12:40:00.399Z,31.30
2022-11-13T12:45:28.199Z,40.90
2022-11-13T12:50:33.019Z,41.03
2022-11-13T12:55:40.816Z,34.53
2022-11-13T13:00:58.948Z,35.33
2022-11-13T13:06:08.326Z,42.50
2022-11-13T13:11:49.056Z,33.13
2022-11-13T13:16:52.116Z,37.10
2022-11-13T13:21:56.129Z,29.80
2022-11-13T13:27:01.482Z,26.67
2022-11-13T13:32:27.254Z,29.67
2022-11-13T13:38:08.268Z,28.47
2022-11-13T13:43:41.346Z,46.83
2022-11-13T13:48:47.897Z,33.40
2022-11-13T13:53:51.557Z,36.57
2022-11-13T13:58:55.171Z,43.63
2022-11-13T14:04:18.849Z,38.93
2022-11-13T14:09:26.549Z,49.53
2022-11-13T14:14:31.100Z,45.40
2022-11-13T14:19:34.149Z,51.07
2022-11-13T14:24:53.667Z,56.03
2022-11-13T14:30:01.569Z,54.63
2022-11-13T14:35:08.066Z,56.57
2022-11-13T14:40:33.269Z,63.03
2022-11-13T14:45:36.382Z,73.07
2022-11-13T14:50:51.212Z,40.23
2022-11-13T14:56:00.541Z,31.30
2022-11-13T15:01:25.435Z,55.27
2022-11-13T15:06:39.865Z,49.93
2022-11-13T15:11:43.416Z,36.27
2022-11-13T15:16:48.755Z,63.53
2022-11-13T15:22:25.293Z,43.07
2022-11-13T15:27:19.263Z,51.63
2022-11-13T15:32:22.202Z,30.53
2022-11-13T15:37:25.748Z,28.63
2022-11-13T15:42:34.714Z,35.27
2022-11-13T15:47:37.955Z,58.33
2022-11-13T15:52:45.087Z,60.37
2022-11-13T15:57:48.785Z,48.77
2022-11-13T16:02:57.313Z,65.77
2022-11-13T16:08:00.230Z,78.97
2022-11-13T16:13:03.612Z,66.93
2022-11-13T16:18:15.824Z,66.83
2022-11-13T16:23:19.032Z,55.67
2022-11-13T16:28:22.010Z,47.30
2022-11-13T16:33:24.810Z,51.47
2022-11-13T16:38:28.476Z,52.63
2022-11-13T16:43:31.353Z,49.80
2022-11-13T16:48:34.447Z,61.70
2022-11-13T16:53:37.285Z,92.73
2022-11-13T16:58:40.268Z,62.30
2022-11-13T17:03:43.849Z,119.57
2022-11-13T17:08:51.067Z,104.73
2022-11-13T17:13:56.993Z,71.00
2022-11-13T17:19:00.335Z,117.70
2022-11-13T17:24:03.906Z,67.53
2022-11-13T17:29:07.379Z,78.23
2022-11-13T17:34:10.308Z,78.00
2022-11-13T17:39:13.236Z,63.37
2022-11-13T17:44:17.525Z,47.60
2022-11-13T17:49:21.076Z,51.87
2022-11-13T17:54:25.380Z,49.53
2022-11-13T17:59:28.562Z,59.00
2022-11-13T18:04:31.222Z,75.33
2022-11-13T18:09:35.246Z,67.10
2022-11-13T18:14:38.114Z,43.97
2022-11-13T18:19:40.959Z,46.57
2022-11-13T18:24:44.091Z,53.80
2022-11-13T18:29:47.065Z,73.57
2022-11-13T18:34:49.974Z,58.47
2022-11-13T18:39:53.377Z,75.37
2022-11-13T18:44:56.273Z,76.20
2022-11-13T18:49:59.240Z,61.83
2022-11-13T18:55:02.331Z,55.23
2022-11-13T19:00:05.857Z,76.37
2022-11-13T19:05:09.676Z,63.53
2022-11-13T19:10:12.898Z,73.67
2022-11-13T19:15:15.894Z,81.93
2022-11-13T19:20:18.947Z,76.00
2022-11-13T19:25:22.720Z,165.63
2022-11-13T19:30:25.737Z,69.80
2022-11-13T19:35:28.711Z,52.10
2022-11-13T19:40:31.824Z,69.30
2022-11-13T19:45:36.166Z,74.73
2022-11-13T19:50:39.483Z,56.93
2022-11-13T19:55:42.820Z,61.70
2022-11-13T20:00:45.712Z,48.33
2022-11-13T20:05:54.708Z,60.93
2022-11-13T20:11:10.456Z,59.80
2022-11-13T20:16:16.008Z,51.83
2022-11-13T20:21:30.200Z,35.43
2022-11-13T20:26:33.250Z,59.77
2022-11-13T20:31:36.329Z,64.87
2022-11-13T20:36:39.268Z,113.57
2022-11-13T20:41:42.761Z,47.93
2022-11-13T20:46:45.727Z,81.40
2022-11-13T20:51:50.634Z,76.93
2022-11-13T20:56:56.470Z,60.03
2022-11-13T21:01:59.613Z,81.13
2022-11-13T21:07:02.570Z,85.63
2022-11-13T21:12:05.870Z,70.90
2022-11-13T21:17:08.736Z,54.17
2022-11-13T21:22:11.614Z,47.00
2022-11-13T21:27:14.535Z,43.60
2022-11-13T21:32:17.451Z,53.13
2022-11-13T21:37:20.339Z,56.10
2022-11-13T21:42:23.191Z,60.37
2022-11-13T21:47:26.203Z,36.27
2022-11-13T21:52:29.525Z,33.97
2022-11-13T21:57:32.409Z,45.90
2022-11-13T22:02:35.475Z,51.97
2022-11-13T22:07:38.345Z,39.30
2022-11-13T22:12:41.281Z,39.03
2022-11-13T22:17:44.363Z,44.43
2022-11-13T22:22:47.255Z,59.57
2022-11-13T22:27:49.885Z,45.47
2022-11-13T22:32:52.759Z,45.20
2022-11-13T22:37:55.611Z,56.07
2022-11-13T22:42:59.603Z,39.43
2022-11-13T22:48:02.492Z,55.90
2022-11-13T22:53:05.347Z,38.23
2022-11-13T22:58:08.150Z,45.10
2022-11-13T23:03:11.072Z,37.20
2022-11-13T23:08:13.922Z,36.77
2022-11-13T23:13:16.957Z,54.90
2022-11-13T23:18:19.896Z,28.00
2022-11-13T23:23:22.772Z,21.13
2022-11-13T23:28:26.183Z,20.50
2022-11-13T23:33:29.259Z,20.47
2022-11-13T23:38:32.428Z,22.63
2022-11-13T23:48:58.483Z,21.37
2022-11-13T23:54:01.513Z,31.37
2022-11-13T23:59:04.443Z,20.83
